Minneapolis, Minnesota
Traffic Map
Current Weather Conditions
Minneapolis, Minnesota
Overcast
Overcast
31°
Feels Like: 20°
Wind Chill: 20° Ceiling: 1600
Heat Index: 31° Visibility: 10mi
Dew Point: 27° Wind: 16mph
Humidity: 85% Direction: 300° (WNW)
Pressure: 29.3in Gusts: 0mph
Raw Report DataKMSP 240853Z 30014KT 10SM OVC016 M01/M03 A2930 RMK AO2 SLP929 60001 T10061028 56012
Traffic Incident Summary
Active as of:
Severity:
Category:
InformationThere was an issue retrieving the traffic information for this location. Please try a different location or try again shortly.
Advertisements
Track Severe Weather on mobile